sensor_id;sensor_type;location;lat;lon;timestamp;P1;durP1;ratioP1;P2;durP2;ratioP2
40284;SDS011;25997;50.214;19.354;2022-07-18T00:01:29;10.32;;;4.40;;
40284;SDS011;25997;50.214;19.354;2022-07-18T00:04:32;9.60;;;5.30;;
40284;SDS011;25997;50.214;19.354;2022-07-18T00:07:34;8.70;;;4.70;;
40284;SDS011;25997;50.214;19.354;2022-07-18T00:10:37;8.40;;;4.10;;
40284;SDS011;25997;50.214;19.354;2022-07-18T00:13:39;9.82;;;4.38;;
40284;SDS011;25997;50.214;19.354;2022-07-18T00:16:43;7.63;;;4.68;;
40284;SDS011;25997;50.214;19.354;2022-07-18T00:19:45;8.68;;;5.05;;
40284;SDS011;25997;50.214;19.354;2022-07-18T00:22:48;8.52;;;5.18;;
40284;SDS011;25997;50.214;19.354;2022-07-18T00:25:50;8.95;;;5.78;;
40284;SDS011;25997;50.214;19.354;2022-07-18T00:28:53;9.27;;;5.82;;
40284;SDS011;25997;50.214;19.354;2022-07-18T00:31:57;10.02;;;5.32;;
40284;SDS011;25997;50.214;19.354;2022-07-18T00:35:00;8.30;;;5.32;;
40284;SDS011;25997;50.214;19.354;2022-07-18T00:38:02;8.02;;;4.70;;
40284;SDS011;25997;50.214;19.354;2022-07-18T00:41:05;9.93;;;5.40;;
40284;SDS011;25997;50.214;19.354;2022-07-18T00:44:15;8.32;;;5.20;;
40284;SDS011;25997;50.214;19.354;2022-07-18T00:47:20;8.93;;;5.10;;
40284;SDS011;25997;50.214;19.354;2022-07-18T00:50:22;6.80;;;5.22;;
40284;SDS011;25997;50.214;19.354;2022-07-18T00:53:25;8.75;;;4.93;;
40284;SDS011;25997;50.214;19.354;2022-07-18T00:56:28;7.75;;;5.03;;
40284;SDS011;25997;50.214;19.354;2022-07-18T00:59:30;12.05;;;5.90;;
40284;SDS011;25997;50.214;19.354;2022-07-18T01:02:52;15.30;;;5.45;;
40284;SDS011;25997;50.214;19.354;2022-07-18T01:05:54;7.53;;;5.30;;
40284;SDS011;25997;50.214;19.354;2022-07-18T01:08:57;10.10;;;6.07;;
40284;SDS011;25997;50.214;19.354;2022-07-18T01:11:59;7.68;;;6.00;;
40284;SDS011;25997;50.214;19.354;2022-07-18T01:15:04;6.82;;;5.10;;
40284;SDS011;25997;50.214;19.354;2022-07-18T01:18:09;8.77;;;6.13;;
40284;SDS011;25997;50.214;19.354;2022-07-18T01:21:12;9.23;;;5.32;;
40284;SDS011;25997;50.214;19.354;2022-07-18T01:24:15;8.85;;;5.72;;
40284;SDS011;25997;50.214;19.354;2022-07-18T01:27:18;8.13;;;5.47;;
40284;SDS011;25997;50.214;19.354;2022-07-18T01:30:22;9.00;;;5.68;;
40284;SDS011;25997;50.214;19.354;2022-07-18T01:33:25;8.05;;;5.82;;
40284;SDS011;25997;50.214;19.354;2022-07-18T01:36:29;8.85;;;6.85;;
40284;SDS011;25997;50.214;19.354;2022-07-18T01:39:32;9.07;;;5.97;;
40284;SDS011;25997;50.214;19.354;2022-07-18T01:42:34;9.73;;;5.90;;
40284;SDS011;25997;50.214;19.354;2022-07-18T01:45:37;13.60;;;7.50;;
40284;SDS011;25997;50.214;19.354;2022-07-18T01:48:39;8.75;;;6.57;;
40284;SDS011;25997;50.214;19.354;2022-07-18T01:51:45;12.38;;;7.53;;
40284;SDS011;25997;50.214;19.354;2022-07-18T01:54:48;10.20;;;6.47;;
40284;SDS011;25997;50.214;19.354;2022-07-18T01:57:50;11.20;;;7.45;;
40284;SDS011;25997;50.214;19.354;2022-07-18T02:00:53;10.32;;;6.97;;
40284;SDS011;25997;50.214;19.354;2022-07-18T02:03:55;8.27;;;5.90;;
40284;SDS011;25997;50.214;19.354;2022-07-18T02:06:59;9.38;;;7.10;;
40284;SDS011;25997;50.214;19.354;2022-07-18T02:10:03;12.75;;;8.80;;
40284;SDS011;25997;50.214;19.354;2022-07-18T02:13:08;10.38;;;7.95;;
40284;SDS011;25997;50.214;19.354;2022-07-18T02:16:10;14.00;;;8.55;;
40284;SDS011;25997;50.214;19.354;2022-07-18T02:19:12;11.85;;;7.28;;
40284;SDS011;25997;50.214;19.354;2022-07-18T02:22:16;11.85;;;7.32;;
40284;SDS011;25997;50.214;19.354;2022-07-18T02:25:19;11.25;;;7.63;;
40284;SDS011;25997;50.214;19.354;2022-07-18T02:28:21;9.95;;;7.68;;
40284;SDS011;25997;50.214;19.354;2022-07-18T02:31:24;12.20;;;7.32;;
40284;SDS011;25997;50.214;19.354;2022-07-18T02:34:26;13.65;;;8.20;;
40284;SDS011;25997;50.214;19.354;2022-07-18T02:37:30;13.02;;;7.85;;
40284;SDS011;25997;50.214;19.354;2022-07-18T02:40:32;9.70;;;7.20;;
40284;SDS011;25997;50.214;19.354;2022-07-18T02:43:35;12.63;;;7.40;;
40284;SDS011;25997;50.214;19.354;2022-07-18T02:46:38;9.75;;;7.30;;
40284;SDS011;25997;50.214;19.354;2022-07-18T02:49:40;10.88;;;7.25;;
40284;SDS011;25997;50.214;19.354;2022-07-18T02:52:44;11.38;;;6.95;;
40284;SDS011;25997;50.214;19.354;2022-07-18T02:55:47;10.77;;;7.07;;
40284;SDS011;25997;50.214;19.354;2022-07-18T02:58:49;12.68;;;7.78;;
40284;SDS011;25997;50.214;19.354;2022-07-18T03:01:52;11.63;;;7.85;;
40284;SDS011;25997;50.214;19.354;2022-07-18T03:04:55;9.65;;;7.22;;
40284;SDS011;25997;50.214;19.354;2022-07-18T03:07:58;11.82;;;7.47;;
40284;SDS011;25997;50.214;19.354;2022-07-18T03:11:01;10.45;;;6.93;;
40284;SDS011;25997;50.214;19.354;2022-07-18T03:14:03;9.90;;;6.68;;
40284;SDS011;25997;50.214;19.354;2022-07-18T03:17:06;13.30;;;7.70;;
40284;SDS011;25997;50.214;19.354;2022-07-18T03:20:09;8.40;;;6.22;;
40284;SDS011;25997;50.214;19.354;2022-07-18T03:23:13;8.98;;;7.30;;
40284;SDS011;25997;50.214;19.354;2022-07-18T03:26:16;11.52;;;6.70;;
40284;SDS011;25997;50.214;19.354;2022-07-18T03:29:18;15.18;;;8.90;;
40284;SDS011;25997;50.214;19.354;2022-07-18T03:32:21;11.75;;;8.43;;
40284;SDS011;25997;50.214;19.354;2022-07-18T03:35:23;8.25;;;7.38;;
40284;SDS011;25997;50.214;19.354;2022-07-18T03:38:27;10.63;;;8.80;;
40284;SDS011;25997;50.214;19.354;2022-07-18T03:41:30;13.48;;;9.63;;
40284;SDS011;25997;50.214;19.354;2022-07-18T03:44:32;12.25;;;10.50;;
40284;SDS011;25997;50.214;19.354;2022-07-18T03:47:35;11.70;;;8.45;;
40284;SDS011;25997;50.214;19.354;2022-07-18T03:50:38;12.43;;;9.20;;
40284;SDS011;25997;50.214;19.354;2022-07-18T03:53:41;12.82;;;8.50;;
40284;SDS011;25997;50.214;19.354;2022-07-18T03:56:44;16.23;;;8.75;;
40284;SDS011;25997;50.214;19.354;2022-07-18T03:59:46;14.27;;;8.85;;
40284;SDS011;25997;50.214;19.354;2022-07-18T04:02:49;13.32;;;9.85;;
40284;SDS011;25997;50.214;19.354;2022-07-18T04:05:51;13.95;;;9.73;;
40284;SDS011;25997;50.214;19.354;2022-07-18T04:08:55;10.50;;;7.63;;
40284;SDS011;25997;50.214;19.354;2022-07-18T04:11:57;10.90;;;7.78;;
40284;SDS011;25997;50.214;19.354;2022-07-18T04:15:00;11.00;;;7.93;;
40284;SDS011;25997;50.214;19.354;2022-07-18T04:18:04;11.85;;;7.95;;
40284;SDS011;25997;50.214;19.354;2022-07-18T04:21:07;12.57;;;7.45;;
40284;SDS011;25997;50.214;19.354;2022-07-18T04:24:11;11.23;;;7.10;;
40284;SDS011;25997;50.214;19.354;2022-07-18T04:27:13;9.43;;;6.75;;
40284;SDS011;25997;50.214;19.354;2022-07-18T04:30:17;11.70;;;6.75;;
40284;SDS011;25997;50.214;19.354;2022-07-18T04:33:21;10.73;;;6.88;;
40284;SDS011;25997;50.214;19.354;2022-07-18T04:36:23;8.77;;;6.90;;
40284;SDS011;25997;50.214;19.354;2022-07-18T04:39:27;13.13;;;7.05;;
40284;SDS011;25997;50.214;19.354;2022-07-18T04:42:30;9.40;;;7.07;;
40284;SDS011;25997;50.214;19.354;2022-07-18T04:45:32;8.18;;;6.60;;
40284;SDS011;25997;50.214;19.354;2022-07-18T04:48:35;7.97;;;6.22;;
40284;SDS011;25997;50.214;19.354;2022-07-18T04:51:39;9.27;;;6.22;;
40284;SDS011;25997;50.214;19.354;2022-07-18T04:54:42;8.50;;;6.45;;
40284;SDS011;25997;50.214;19.354;2022-07-18T04:57:45;9.35;;;6.78;;
40284;SDS011;25997;50.214;19.354;2022-07-18T05:00:48;10.15;;;6.45;;
40284;SDS011;25997;50.214;19.354;2022-07-18T05:03:50;8.75;;;6.60;;
40284;SDS011;25997;50.214;19.354;2022-07-18T05:06:53;8.85;;;6.80;;
40284;SDS011;25997;50.214;19.354;2022-07-18T05:09:56;9.75;;;6.88;;
40284;SDS011;25997;50.214;19.354;2022-07-18T05:12:59;10.27;;;7.10;;
40284;SDS011;25997;50.214;19.354;2022-07-18T05:16:02;12.88;;;7.97;;
40284;SDS011;25997;50.214;19.354;2022-07-18T05:19:04;10.13;;;6.80;;
40284;SDS011;25997;50.214;19.354;2022-07-18T05:22:07;8.73;;;7.35;;
40284;SDS011;25997;50.214;19.354;2022-07-18T05:25:11;9.30;;;6.82;;
40284;SDS011;25997;50.214;19.354;2022-07-18T05:28:13;9.40;;;7.18;;
40284;SDS011;25997;50.214;19.354;2022-07-18T05:31:16;10.55;;;7.75;;
40284;SDS011;25997;50.214;19.354;2022-07-18T05:34:18;18.10;;;9.43;;
40284;SDS011;25997;50.214;19.354;2022-07-18T05:37:21;10.75;;;7.45;;
40284;SDS011;25997;50.214;19.354;2022-07-18T05:40:25;13.10;;;8.00;;
40284;SDS011;25997;50.214;19.354;2022-07-18T05:43:28;11.43;;;8.05;;
40284;SDS011;25997;50.214;19.354;2022-07-18T05:46:30;9.35;;;7.50;;
40284;SDS011;25997;50.214;19.354;2022-07-18T05:49:33;10.25;;;7.38;;
40284;SDS011;25997;50.214;19.354;2022-07-18T05:52:35;10.10;;;7.35;;
40284;SDS011;25997;50.214;19.354;2022-07-18T05:55:39;12.00;;;7.70;;
40284;SDS011;25997;50.214;19.354;2022-07-18T05:58:42;13.02;;;6.90;;
40284;SDS011;25997;50.214;19.354;2022-07-18T06:01:44;12.15;;;7.97;;
40284;SDS011;25997;50.214;19.354;2022-07-18T06:04:47;10.73;;;8.07;;
40284;SDS011;25997;50.214;19.354;2022-07-18T06:07:49;11.20;;;7.40;;
40284;SDS011;25997;50.214;19.354;2022-07-18T06:10:53;11.75;;;7.57;;
40284;SDS011;25997;50.214;19.354;2022-07-18T06:13:56;9.60;;;7.95;;
40284;SDS011;25997;50.214;19.354;2022-07-18T06:16:58;10.77;;;8.27;;
40284;SDS011;25997;50.214;19.354;2022-07-18T06:20:01;17.05;;;10.30;;
40284;SDS011;25997;50.214;19.354;2022-07-18T06:23:05;13.60;;;9.48;;
40284;SDS011;25997;50.214;19.354;2022-07-18T06:26:09;13.57;;;8.10;;
40284;SDS011;25997;50.214;19.354;2022-07-18T06:29:12;14.20;;;8.43;;
40284;SDS011;25997;50.214;19.354;2022-07-18T06:32:14;12.02;;;7.38;;
40284;SDS011;25997;50.214;19.354;2022-07-18T06:35:17;9.55;;;6.30;;
40284;SDS011;25997;50.214;19.354;2022-07-18T06:38:19;11.65;;;6.75;;
40284;SDS011;25997;50.214;19.354;2022-07-18T06:41:23;14.18;;;6.22;;
40284;SDS011;25997;50.214;19.354;2022-07-18T06:44:26;12.27;;;5.93;;
40284;SDS011;25997;50.214;19.354;2022-07-18T06:47:28;8.90;;;5.32;;
40284;SDS011;25997;50.214;19.354;2022-07-18T06:50:31;8.02;;;4.80;;
40284;SDS011;25997;50.214;19.354;2022-07-18T06:53:33;12.15;;;4.50;;
40284;SDS011;25997;50.214;19.354;2022-07-18T06:56:38;9.98;;;5.57;;
40284;SDS011;25997;50.214;19.354;2022-07-18T06:59:40;12.27;;;4.85;;
40284;SDS011;25997;50.214;19.354;2022-07-18T07:02:43;7.38;;;3.85;;
40284;SDS011;25997;50.214;19.354;2022-07-18T07:05:47;8.93;;;4.38;;
40284;SDS011;25997;50.214;19.354;2022-07-18T07:08:49;9.38;;;3.90;;
40284;SDS011;25997;50.214;19.354;2022-07-18T07:11:53;9.50;;;3.40;;
40284;SDS011;25997;50.214;19.354;2022-07-18T07:14:55;6.93;;;4.10;;
40284;SDS011;25997;50.214;19.354;2022-07-18T07:17:58;11.32;;;5.00;;
40284;SDS011;25997;50.214;19.354;2022-07-18T07:21:01;6.85;;;3.22;;
40284;SDS011;25997;50.214;19.354;2022-07-18T07:24:04;10.80;;;4.90;;
40284;SDS011;25997;50.214;19.354;2022-07-18T07:27:09;9.35;;;4.35;;
40284;SDS011;25997;50.214;19.354;2022-07-18T07:30:12;10.52;;;4.15;;
40284;SDS011;25997;50.214;19.354;2022-07-18T07:33:15;11.27;;;5.40;;
40284;SDS011;25997;50.214;19.354;2022-07-18T07:36:18;7.78;;;4.55;;
40284;SDS011;25997;50.214;19.354;2022-07-18T07:39:22;14.63;;;5.30;;
40284;SDS011;25997;50.214;19.354;2022-07-18T07:42:25;8.07;;;3.55;;
40284;SDS011;25997;50.214;19.354;2022-07-18T07:45:28;7.03;;;4.13;;
40284;SDS011;25997;50.214;19.354;2022-07-18T07:48:30;8.13;;;3.63;;
40284;SDS011;25997;50.214;19.354;2022-07-18T07:51:33;10.05;;;2.97;;
40284;SDS011;25997;50.214;19.354;2022-07-18T07:54:35;7.13;;;3.13;;
40284;SDS011;25997;50.214;19.354;2022-07-18T07:57:39;7.60;;;2.97;;
40284;SDS011;25997;50.214;19.354;2022-07-18T08:00:42;4.43;;;2.42;;
40284;SDS011;25997;50.214;19.354;2022-07-18T08:03:44;10.73;;;3.00;;
40284;SDS011;25997;50.214;19.354;2022-07-18T08:06:49;6.50;;;1.85;;
40284;SDS011;25997;50.214;19.354;2022-07-18T08:09:51;7.35;;;2.78;;
40284;SDS011;25997;50.214;19.354;2022-07-18T08:12:55;6.80;;;2.58;;
40284;SDS011;25997;50.214;19.354;2022-07-18T08:15:58;5.82;;;2.08;;
40284;SDS011;25997;50.214;19.354;2022-07-18T08:19:00;7.57;;;2.33;;
40284;SDS011;25997;50.214;19.354;2022-07-18T08:22:03;3.30;;;1.77;;
40284;SDS011;25997;50.214;19.354;2022-07-18T08:25:07;3.60;;;1.98;;
40284;SDS011;25997;50.214;19.354;2022-07-18T08:28:11;6.70;;;2.40;;
40284;SDS011;25997;50.214;19.354;2022-07-18T08:31:14;7.75;;;2.35;;
40284;SDS011;25997;50.214;19.354;2022-07-18T08:34:17;5.00;;;2.50;;
40284;SDS011;25997;50.214;19.354;2022-07-18T08:37:19;9.13;;;2.05;;
40284;SDS011;25997;50.214;19.354;2022-07-18T08:40:22;5.57;;;2.53;;
40284;SDS011;25997;50.214;19.354;2022-07-18T08:43:26;3.88;;;2.00;;
40284;SDS011;25997;50.214;19.354;2022-07-18T08:46:29;4.28;;;2.17;;
40284;SDS011;25997;50.214;19.354;2022-07-18T08:49:34;8.35;;;2.13;;
40284;SDS011;25997;50.214;19.354;2022-07-18T08:52:37;6.97;;;3.30;;
40284;SDS011;25997;50.214;19.354;2022-07-18T08:55:40;8.48;;;2.40;;
40284;SDS011;25997;50.214;19.354;2022-07-18T08:58:44;11.00;;;2.53;;
40284;SDS011;25997;50.214;19.354;2022-07-18T09:01:46;6.25;;;2.13;;
40284;SDS011;25997;50.214;19.354;2022-07-18T09:04:49;4.18;;;2.38;;
40284;SDS011;25997;50.214;19.354;2022-07-18T09:07:51;3.58;;;2.42;;
40284;SDS011;25997;50.214;19.354;2022-07-18T09:11:10;5.90;;;2.20;;
40284;SDS011;25997;50.214;19.354;2022-07-18T09:14:21;7.88;;;2.42;;
40284;SDS011;25997;50.214;19.354;2022-07-18T09:17:36;4.20;;;2.20;;
40284;SDS011;25997;50.214;19.354;2022-07-18T09:20:39;6.45;;;2.10;;
40284;SDS011;25997;50.214;19.354;2022-07-18T09:23:42;5.07;;;2.25;;
40284;SDS011;25997;50.214;19.354;2022-07-18T09:26:49;4.93;;;2.22;;
40284;SDS011;25997;50.214;19.354;2022-07-18T09:33:15;9.48;;;2.90;;
40284;SDS011;25997;50.214;19.354;2022-07-18T09:36:20;4.85;;;2.50;;
40284;SDS011;25997;50.214;19.354;2022-07-18T09:39:23;5.78;;;2.53;;
40284;SDS011;25997;50.214;19.354;2022-07-18T09:42:26;4.72;;;2.70;;
40284;SDS011;25997;50.214;19.354;2022-07-18T09:45:32;8.43;;;3.00;;
40284;SDS011;25997;50.214;19.354;2022-07-18T09:48:36;7.10;;;2.35;;
40284;SDS011;25997;50.214;19.354;2022-07-18T09:51:38;6.60;;;2.20;;
40284;SDS011;25997;50.214;19.354;2022-07-18T09:55:03;5.90;;;2.30;;
40284;SDS011;25997;50.214;19.354;2022-07-18T09:58:07;4.65;;;2.25;;
40284;SDS011;25997;50.214;19.354;2022-07-18T10:01:11;6.57;;;2.78;;
40284;SDS011;25997;50.214;19.354;2022-07-18T10:04:14;6.35;;;2.30;;
40284;SDS011;25997;50.214;19.354;2022-07-18T10:07:16;5.05;;;2.38;;
40284;SDS011;25997;50.214;19.354;2022-07-18T10:10:20;12.63;;;9.55;;
40284;SDS011;25997;50.214;19.354;2022-07-18T10:13:25;6.07;;;3.95;;
40284;SDS011;25997;50.214;19.354;2022-07-18T10:16:30;6.13;;;2.70;;
40284;SDS011;25997;50.214;19.354;2022-07-18T10:19:33;4.50;;;3.65;;
40284;SDS011;25997;50.214;19.354;2022-07-18T10:22:36;4.60;;;2.88;;
40284;SDS011;25997;50.214;19.354;2022-07-18T10:25:43;4.93;;;4.10;;
40284;SDS011;25997;50.214;19.354;2022-07-18T10:32:12;6.10;;;2.22;;
40284;SDS011;25997;50.214;19.354;2022-07-18T10:35:15;5.00;;;3.10;;
40284;SDS011;25997;50.214;19.354;2022-07-18T10:38:21;4.15;;;3.00;;
40284;SDS011;25997;50.214;19.354;2022-07-18T10:41:24;6.18;;;3.15;;
40284;SDS011;25997;50.214;19.354;2022-07-18T10:44:33;5.57;;;3.40;;
40284;SDS011;25997;50.214;19.354;2022-07-18T10:47:40;7.93;;;4.47;;
40284;SDS011;25997;50.214;19.354;2022-07-18T10:54:10;4.93;;;2.65;;
40284;SDS011;25997;50.214;19.354;2022-07-18T10:57:16;4.47;;;2.60;;
40284;SDS011;25997;50.214;19.354;2022-07-18T11:00:24;10.15;;;3.15;;
40284;SDS011;25997;50.214;19.354;2022-07-18T11:03:28;5.07;;;2.95;;
40284;SDS011;25997;50.214;19.354;2022-07-18T11:09:54;4.97;;;2.97;;
40284;SDS011;25997;50.214;19.354;2022-07-18T11:16:23;6.93;;;3.50;;
40284;SDS011;25997;50.214;19.354;2022-07-18T11:19:27;6.10;;;3.55;;
40284;SDS011;25997;50.214;19.354;2022-07-18T11:22:30;6.45;;;3.20;;
40284;SDS011;25997;50.214;19.354;2022-07-18T11:25:32;5.35;;;3.00;;
40284;SDS011;25997;50.214;19.354;2022-07-18T11:28:35;6.47;;;3.72;;
40284;SDS011;25997;50.214;19.354;2022-07-18T11:31:42;9.15;;;4.35;;
40284;SDS011;25997;50.214;19.354;2022-07-18T11:34:50;9.25;;;4.28;;
40284;SDS011;25997;50.214;19.354;2022-07-18T11:37:53;5.47;;;3.60;;
40284;SDS011;25997;50.214;19.354;2022-07-18T11:40:56;8.13;;;3.20;;
40284;SDS011;25997;50.214;19.354;2022-07-18T11:43:58;5.78;;;2.95;;
40284;SDS011;25997;50.214;19.354;2022-07-18T11:47:04;4.47;;;3.15;;
40284;SDS011;25997;50.214;19.354;2022-07-18T11:50:09;6.68;;;2.80;;
40284;SDS011;25997;50.214;19.354;2022-07-18T11:53:13;6.22;;;3.63;;
40284;SDS011;25997;50.214;19.354;2022-07-18T11:56:16;6.50;;;3.22;;
40284;SDS011;25997;50.214;19.354;2022-07-18T11:59:19;8.35;;;3.55;;
40284;SDS011;25997;50.214;19.354;2022-07-18T12:06:13;7.47;;;4.38;;
40284;SDS011;25997;50.214;19.354;2022-07-18T12:09:25;5.63;;;3.50;;
40284;SDS011;25997;50.214;19.354;2022-07-18T12:12:28;4.65;;;3.10;;
40284;SDS011;25997;50.214;19.354;2022-07-18T12:15:38;8.82;;;3.40;;
40284;SDS011;25997;50.214;19.354;2022-07-18T12:18:47;4.72;;;3.47;;
40284;SDS011;25997;50.214;19.354;2022-07-18T12:21:52;8.38;;;4.63;;
40284;SDS011;25997;50.214;19.354;2022-07-18T12:24:56;4.68;;;2.90;;
40284;SDS011;25997;50.214;19.354;2022-07-18T12:28:11;4.13;;;3.20;;
40284;SDS011;25997;50.214;19.354;2022-07-18T12:34:53;8.20;;;4.70;;
40284;SDS011;25997;50.214;19.354;2022-07-18T12:37:58;4.32;;;3.40;;
40284;SDS011;25997;50.214;19.354;2022-07-18T12:41:02;6.55;;;3.00;;
40284;SDS011;25997;50.214;19.354;2022-07-18T12:44:05;6.15;;;2.65;;
40284;SDS011;25997;50.214;19.354;2022-07-18T12:47:07;5.25;;;2.90;;
40284;SDS011;25997;50.214;19.354;2022-07-18T12:50:10;4.90;;;3.05;;
40284;SDS011;25997;50.214;19.354;2022-07-18T12:53:13;5.10;;;2.80;;
40284;SDS011;25997;50.214;19.354;2022-07-18T12:56:16;4.30;;;2.70;;
40284;SDS011;25997;50.214;19.354;2022-07-18T12:59:18;6.63;;;3.00;;
40284;SDS011;25997;50.214;19.354;2022-07-18T13:02:21;6.28;;;2.70;;
40284;SDS011;25997;50.214;19.354;2022-07-18T13:05:23;6.53;;;3.38;;
40284;SDS011;25997;50.214;19.354;2022-07-18T13:08:28;6.32;;;2.78;;
40284;SDS011;25997;50.214;19.354;2022-07-18T13:11:30;5.47;;;2.80;;
40284;SDS011;25997;50.214;19.354;2022-07-18T13:14:33;4.65;;;2.65;;
40284;SDS011;25997;50.214;19.354;2022-07-18T13:17:35;4.55;;;2.75;;
40284;SDS011;25997;50.214;19.354;2022-07-18T13:20:40;7.50;;;3.03;;
40284;SDS011;25997;50.214;19.354;2022-07-18T13:23:44;4.05;;;2.60;;
40284;SDS011;25997;50.214;19.354;2022-07-18T13:26:46;5.40;;;2.60;;
40284;SDS011;25997;50.214;19.354;2022-07-18T13:29:48;9.70;;;3.30;;
40284;SDS011;25997;50.214;19.354;2022-07-18T13:32:51;5.43;;;3.42;;
40284;SDS011;25997;50.214;19.354;2022-07-18T13:35:53;7.50;;;2.80;;
40284;SDS011;25997;50.214;19.354;2022-07-18T13:38:57;4.63;;;3.03;;
40284;SDS011;25997;50.214;19.354;2022-07-18T13:42:01;5.60;;;3.72;;
40284;SDS011;25997;50.214;19.354;2022-07-18T13:45:06;5.50;;;3.20;;
40284;SDS011;25997;50.214;19.354;2022-07-18T13:48:10;5.28;;;3.13;;
40284;SDS011;25997;50.214;19.354;2022-07-18T13:51:12;4.30;;;3.10;;
40284;SDS011;25997;50.214;19.354;2022-07-18T13:54:16;6.78;;;3.40;;
40284;SDS011;25997;50.214;19.354;2022-07-18T13:57:19;3.70;;;2.83;;
40284;SDS011;25997;50.214;19.354;2022-07-18T14:00:22;4.03;;;2.47;;
40284;SDS011;25997;50.214;19.354;2022-07-18T14:03:24;4.78;;;3.35;;
40284;SDS011;25997;50.214;19.354;2022-07-18T14:06:27;5.72;;;3.53;;
40284;SDS011;25997;50.214;19.354;2022-07-18T14:09:31;8.48;;;3.25;;
40284;SDS011;25997;50.214;19.354;2022-07-18T14:12:33;4.47;;;2.80;;
40284;SDS011;25997;50.214;19.354;2022-07-18T14:15:36;4.47;;;3.47;;
40284;SDS011;25997;50.214;19.354;2022-07-18T14:18:39;5.20;;;2.92;;
40284;SDS011;25997;50.214;19.354;2022-07-18T14:21:42;7.07;;;2.55;;
40284;SDS011;25997;50.214;19.354;2022-07-18T14:24:47;12.65;;;5.47;;
40284;SDS011;25997;50.214;19.354;2022-07-18T14:27:49;6.25;;;3.17;;
40284;SDS011;25997;50.214;19.354;2022-07-18T14:30:51;9.20;;;3.38;;
40284;SDS011;25997;50.214;19.354;2022-07-18T14:33:54;5.35;;;3.65;;
40284;SDS011;25997;50.214;19.354;2022-07-18T14:36:56;6.22;;;3.47;;
40284;SDS011;25997;50.214;19.354;2022-07-18T14:40:00;4.80;;;3.22;;
40284;SDS011;25997;50.214;19.354;2022-07-18T14:43:03;4.25;;;2.67;;
40284;SDS011;25997;50.214;19.354;2022-07-18T14:46:06;7.88;;;3.13;;
40284;SDS011;25997;50.214;19.354;2022-07-18T14:49:11;4.38;;;2.75;;
40284;SDS011;25997;50.214;19.354;2022-07-18T14:52:14;4.95;;;3.35;;
40284;SDS011;25997;50.214;19.354;2022-07-18T14:55:18;4.32;;;3.47;;
40284;SDS011;25997;50.214;19.354;2022-07-18T14:58:20;6.38;;;3.05;;
40284;SDS011;25997;50.214;19.354;2022-07-18T15:01:23;5.85;;;3.33;;
40284;SDS011;25997;50.214;19.354;2022-07-18T15:04:25;4.55;;;2.72;;
40284;SDS011;25997;50.214;19.354;2022-07-18T15:07:28;5.72;;;3.05;;
40284;SDS011;25997;50.214;19.354;2022-07-18T15:10:32;7.50;;;3.03;;
40284;SDS011;25997;50.214;19.354;2022-07-18T15:13:34;6.22;;;3.15;;
40284;SDS011;25997;50.214;19.354;2022-07-18T15:16:40;10.25;;;3.75;;
40284;SDS011;25997;50.214;19.354;2022-07-18T15:19:42;4.97;;;3.50;;
40284;SDS011;25997;50.214;19.354;2022-07-18T15:22:45;5.70;;;3.55;;
40284;SDS011;25997;50.214;19.354;2022-07-18T15:25:49;6.13;;;5.10;;
40284;SDS011;25997;50.214;19.354;2022-07-18T15:28:52;5.82;;;2.97;;
40284;SDS011;25997;50.214;19.354;2022-07-18T15:31:54;8.57;;;3.67;;
40284;SDS011;25997;50.214;19.354;2022-07-18T15:34:57;5.55;;;2.97;;
40284;SDS011;25997;50.214;19.354;2022-07-18T15:37:59;5.35;;;2.72;;
40284;SDS011;25997;50.214;19.354;2022-07-18T15:41:05;4.20;;;2.75;;
40284;SDS011;25997;50.214;19.354;2022-07-18T15:44:09;3.80;;;2.70;;
40284;SDS011;25997;50.214;19.354;2022-07-18T15:47:12;6.47;;;2.90;;
40284;SDS011;25997;50.214;19.354;2022-07-18T15:50:15;4.03;;;2.60;;
40284;SDS011;25997;50.214;19.354;2022-07-18T15:53:18;4.65;;;2.70;;
40284;SDS011;25997;50.214;19.354;2022-07-18T15:56:26;4.35;;;2.58;;
40284;SDS011;25997;50.214;19.354;2022-07-18T15:59:29;4.00;;;2.58;;
40284;SDS011;25997;50.214;19.354;2022-07-18T16:02:31;4.07;;;2.90;;
40284;SDS011;25997;50.214;19.354;2022-07-18T16:05:35;3.78;;;2.63;;
40284;SDS011;25997;50.214;19.354;2022-07-18T16:08:37;7.07;;;3.30;;
40284;SDS011;25997;50.214;19.354;2022-07-18T16:11:41;5.28;;;2.55;;
40284;SDS011;25997;50.214;19.354;2022-07-18T16:14:44;7.85;;;3.05;;
40284;SDS011;25997;50.214;19.354;2022-07-18T16:17:53;8.02;;;2.88;;
40284;SDS011;25997;50.214;19.354;2022-07-18T16:20:55;5.00;;;3.05;;
40284;SDS011;25997;50.214;19.354;2022-07-18T16:23:58;4.18;;;2.30;;
40284;SDS011;25997;50.214;19.354;2022-07-18T16:27:02;4.05;;;2.60;;
40284;SDS011;25997;50.214;19.354;2022-07-18T16:30:05;5.85;;;3.45;;
40284;SDS011;25997;50.214;19.354;2022-07-18T16:33:09;3.83;;;2.60;;
40284;SDS011;25997;50.214;19.354;2022-07-18T16:36:12;6.05;;;3.38;;
40284;SDS011;25997;50.214;19.354;2022-07-18T16:39:14;7.20;;;3.25;;
40284;SDS011;25997;50.214;19.354;2022-07-18T16:42:18;6.10;;;2.95;;
40284;SDS011;25997;50.214;19.354;2022-07-18T16:45:21;3.55;;;2.60;;
40284;SDS011;25997;50.214;19.354;2022-07-18T16:48:25;5.97;;;3.45;;
40284;SDS011;25997;50.214;19.354;2022-07-18T16:51:27;7.22;;;2.65;;
40284;SDS011;25997;50.214;19.354;2022-07-18T16:54:31;7.68;;;3.38;;
40284;SDS011;25997;50.214;19.354;2022-07-18T16:57:36;4.65;;;3.05;;
40284;SDS011;25997;50.214;19.354;2022-07-18T17:00:38;6.15;;;3.28;;
40284;SDS011;25997;50.214;19.354;2022-07-18T17:03:41;13.50;;;5.25;;
40284;SDS011;25997;50.214;19.354;2022-07-18T17:06:44;4.47;;;2.58;;
40284;SDS011;25997;50.214;19.354;2022-07-18T17:09:47;9.43;;;3.85;;
40284;SDS011;25997;50.214;19.354;2022-07-18T17:12:51;8.20;;;4.68;;
40284;SDS011;25997;50.214;19.354;2022-07-18T17:15:54;6.90;;;3.88;;
40284;SDS011;25997;50.214;19.354;2022-07-18T17:18:57;6.35;;;3.75;;
40284;SDS011;25997;50.214;19.354;2022-07-18T17:22:00;7.53;;;3.47;;
40284;SDS011;25997;50.214;19.354;2022-07-18T17:25:04;6.55;;;4.30;;
40284;SDS011;25997;50.214;19.354;2022-07-18T17:28:08;5.32;;;3.40;;
40284;SDS011;25997;50.214;19.354;2022-07-18T17:31:11;9.73;;;3.83;;
40284;SDS011;25997;50.214;19.354;2022-07-18T17:34:15;6.60;;;3.47;;
40284;SDS011;25997;50.214;19.354;2022-07-18T17:37:17;8.15;;;3.15;;
40284;SDS011;25997;50.214;19.354;2022-07-18T17:40:22;18.92;;;5.50;;
40284;SDS011;25997;50.214;19.354;2022-07-18T17:43:28;11.95;;;3.80;;
40284;SDS011;25997;50.214;19.354;2022-07-18T17:46:31;7.20;;;3.67;;
40284;SDS011;25997;50.214;19.354;2022-07-18T17:49:34;7.70;;;3.40;;
40284;SDS011;25997;50.214;19.354;2022-07-18T17:52:37;8.95;;;3.55;;
40284;SDS011;25997;50.214;19.354;2022-07-18T17:55:39;7.82;;;3.20;;
40284;SDS011;25997;50.214;19.354;2022-07-18T17:58:44;5.68;;;3.30;;
40284;SDS011;25997;50.214;19.354;2022-07-18T18:01:46;5.40;;;2.80;;
40284;SDS011;25997;50.214;19.354;2022-07-18T18:04:48;5.70;;;2.83;;
40284;SDS011;25997;50.214;19.354;2022-07-18T18:07:51;3.80;;;2.53;;
40284;SDS011;25997;50.214;19.354;2022-07-18T18:10:54;4.03;;;2.83;;
40284;SDS011;25997;50.214;19.354;2022-07-18T18:13:58;8.85;;;3.45;;
40284;SDS011;25997;50.214;19.354;2022-07-18T18:17:00;5.22;;;2.70;;
40284;SDS011;25997;50.214;19.354;2022-07-18T18:20:04;6.22;;;3.13;;
40284;SDS011;25997;50.214;19.354;2022-07-18T18:23:07;4.50;;;2.85;;
40284;SDS011;25997;50.214;19.354;2022-07-18T18:26:10;7.35;;;2.95;;
40284;SDS011;25997;50.214;19.354;2022-07-18T18:29:14;6.07;;;3.15;;